createdAt,value
2023-01-13T00:01:52.237Z,8.10
2023-01-13T00:04:19.210Z,7.90
2023-01-13T00:06:46.150Z,7.15
2023-01-13T00:09:13.068Z,7.88
2023-01-13T00:11:40.083Z,7.03
2023-01-13T00:14:08.494Z,7.93
2023-01-13T00:16:38.780Z,7.85
2023-01-13T00:19:06.135Z,7.10
2023-01-13T00:21:33.092Z,8.90
2023-01-13T00:24:00.001Z,8.75
2023-01-13T00:26:30.641Z,8.35
2023-01-13T00:28:59.241Z,7.97
2023-01-13T00:31:28.981Z,8.75
2023-01-13T00:33:56.850Z,8.00
2023-01-13T00:36:23.804Z,8.73
2023-01-13T00:38:50.711Z,8.25
2023-01-13T00:41:19.153Z,7.53
2023-01-13T00:43:47.261Z,8.18
2023-01-13T00:46:16.678Z,7.80
2023-01-13T00:48:45.239Z,8.40
2023-01-13T00:51:13.861Z,8.45
2023-01-13T00:53:43.322Z,7.80
2023-01-13T00:56:16.891Z,8.55
2023-01-13T00:58:46.212Z,8.43
2023-01-13T01:01:16.066Z,9.30
2023-01-13T01:03:43.236Z,8.55
2023-01-13T01:06:14.049Z,9.35
2023-01-13T01:08:41.660Z,8.80
2023-01-13T01:11:11.586Z,9.00
2023-01-13T01:13:38.790Z,7.82
2023-01-13T01:16:09.395Z,8.65
2023-01-13T01:18:37.569Z,8.57
2023-01-13T01:21:05.470Z,8.50
2023-01-13T01:23:35.167Z,8.05
2023-01-13T01:26:03.539Z,8.05
2023-01-13T01:28:30.538Z,8.77
2023-01-13T01:31:00.583Z,7.40
2023-01-13T01:33:28.143Z,9.23
2023-01-13T01:35:55.129Z,10.48
2023-01-13T01:38:23.526Z,10.70
2023-01-13T01:40:51.829Z,11.27
2023-01-13T01:43:39.773Z,9.90
2023-01-13T01:46:07.101Z,10.27
2023-01-13T01:48:42.451Z,11.32
2023-01-13T01:53:37.871Z,10.63
2023-01-13T01:56:08.197Z,11.65
2023-01-13T01:58:41.797Z,10.45
2023-01-13T02:01:09.295Z,11.18
2023-01-13T02:03:40.159Z,10.50
2023-01-13T02:06:08.353Z,10.70
2023-01-13T02:08:37.505Z,10.30
2023-01-13T02:11:06.089Z,11.20
2023-01-13T02:13:33.341Z,10.88
2023-01-13T02:16:08.561Z,10.27
2023-01-13T02:18:44.590Z,10.35
2023-01-13T02:21:34.877Z,9.20
2023-01-13T02:24:52.985Z,9.65
2023-01-13T02:27:53.003Z,7.80
2023-01-13T02:30:49.581Z,8.35
2023-01-13T02:33:27.945Z,6.90
2023-01-13T02:36:01.755Z,7.32
2023-01-13T02:38:32.927Z,6.15
2023-01-13T02:41:25.617Z,6.45
2023-01-13T02:44:10.451Z,5.97
2023-01-13T02:46:46.833Z,5.60
2023-01-13T02:49:23.646Z,5.70
2023-01-13T02:51:53.142Z,5.78
2023-01-13T02:54:24.447Z,6.60
2023-01-13T02:56:54.441Z,5.57
2023-01-13T02:59:22.451Z,5.43
2023-01-13T03:01:51.425Z,5.75
2023-01-13T03:04:48.165Z,5.97
2023-01-13T03:07:36.389Z,5.88
2023-01-13T03:10:10.428Z,5.90
2023-01-13T03:12:47.415Z,6.05
2023-01-13T03:15:22.205Z,6.28
2023-01-13T03:18:01.940Z,6.38
2023-01-13T03:20:33.584Z,5.60
2023-01-13T03:23:07.647Z,5.70
2023-01-13T03:25:40.279Z,6.05
2023-01-13T03:28:12.167Z,5.25
2023-01-13T03:30:43.244Z,6.20
2023-01-13T03:33:16.883Z,6.88
2023-01-13T03:35:46.067Z,5.78
2023-01-13T03:38:17.476Z,6.40
2023-01-13T03:40:49.507Z,5.97
2023-01-13T03:43:40.369Z,7.05
2023-01-13T03:46:14.062Z,7.38
2023-01-13T03:48:45.830Z,7.55
2023-01-13T03:51:17.839Z,7.35
2023-01-13T03:53:53.903Z,7.13
2023-01-13T03:56:26.832Z,7.47
2023-01-13T03:58:54.444Z,7.90
2023-01-13T04:01:25.529Z,8.23
2023-01-13T04:03:59.112Z,8.15
2023-01-13T04:06:32.715Z,8.05
2023-01-13T04:09:08.326Z,8.10
2023-01-13T04:11:39.887Z,8.20
2023-01-13T04:14:12.640Z,8.68
2023-01-13T04:16:40.307Z,9.43
2023-01-13T04:19:10.667Z,8.90
2023-01-13T04:21:37.632Z,8.70
2023-01-13T04:24:05.217Z,8.27
2023-01-13T04:26:32.149Z,9.55
2023-01-13T04:28:59.042Z,9.73
2023-01-13T04:31:26.005Z,8.15
2023-01-13T04:33:52.993Z,8.35
2023-01-13T04:36:25.190Z,8.95
2023-01-13T04:38:52.430Z,8.63
2023-01-13T04:41:19.362Z,8.02
2023-01-13T04:43:46.339Z,8.20
2023-01-13T04:46:13.507Z,8.57
2023-01-13T04:48:40.484Z,7.90
2023-01-13T04:51:07.425Z,8.38
2023-01-13T04:53:38.104Z,9.10
2023-01-13T04:56:05.677Z,8.23
2023-01-13T04:58:32.585Z,7.45
2023-01-13T05:00:59.572Z,8.52
2023-01-13T05:03:26.869Z,8.23
2023-01-13T05:05:53.796Z,7.68
2023-01-13T05:08:20.728Z,7.70
2023-01-13T05:10:49.209Z,7.65
2023-01-13T05:13:34.535Z,8.13
2023-01-13T05:16:20.418Z,7.82
2023-01-13T05:18:47.407Z,6.95
2023-01-13T05:21:34.454Z,7.68
2023-01-13T05:24:20.192Z,6.88
2023-01-13T05:29:15.314Z,7.20
2023-01-13T05:31:42.225Z,7.18
2023-01-13T05:34:09.176Z,7.22
2023-01-13T05:36:36.070Z,7.70
2023-01-13T05:39:03.095Z,8.20
2023-01-13T05:41:48.408Z,8.40
2023-01-13T05:44:16.877Z,8.45
2023-01-13T05:46:43.846Z,8.65
2023-01-13T05:49:10.744Z,9.27
2023-01-13T05:51:37.751Z,9.30
2023-01-13T05:54:04.780Z,9.18
2023-01-13T05:56:31.717Z,9.70
2023-01-13T05:58:58.663Z,9.50
2023-01-13T06:01:27.102Z,9.13
2023-01-13T06:03:54.095Z,8.75
2023-01-13T06:06:21.013Z,9.98
2023-01-13T06:08:47.973Z,10.00
2023-01-13T06:11:15.106Z,9.73
2023-01-13T06:13:42.091Z,10.75
2023-01-13T06:16:09.660Z,9.18
2023-01-13T06:18:38.064Z,8.70
2023-01-13T06:21:05.309Z,8.20
2023-01-13T06:23:35.231Z,8.88
2023-01-13T06:26:10.098Z,8.75
2023-01-13T06:28:37.098Z,8.30
2023-01-13T06:31:10.273Z,7.90
2023-01-13T06:33:43.087Z,7.85
2023-01-13T06:36:13.916Z,8.50
2023-01-13T06:38:43.584Z,7.80
2023-01-13T06:41:10.691Z,8.63
2023-01-13T06:43:38.633Z,8.57
2023-01-13T06:46:06.001Z,7.22
2023-01-13T06:48:35.691Z,8.55
2023-01-13T06:51:05.474Z,8.27
2023-01-13T06:53:32.478Z,8.15
2023-01-13T06:55:59.405Z,8.38
2023-01-13T06:58:26.560Z,7.90
2023-01-13T07:00:53.717Z,8.70
2023-01-13T07:03:20.847Z,9.13
2023-01-13T07:05:52.661Z,8.25
2023-01-13T07:08:21.361Z,8.02
2023-01-13T07:10:48.303Z,8.82
2023-01-13T07:13:33.743Z,8.73
2023-01-13T07:16:02.872Z,8.70
2023-01-13T07:18:32.053Z,8.27
2023-01-13T07:21:00.505Z,8.32
2023-01-13T07:23:29.944Z,8.25
2023-01-13T07:25:57.824Z,9.27
2023-01-13T07:28:24.969Z,7.93
2023-01-13T07:30:52.244Z,8.52
2023-01-13T07:33:19.427Z,9.18
2023-01-13T07:35:48.117Z,7.85
2023-01-13T07:38:15.421Z,9.25
2023-01-13T07:40:43.753Z,8.05
2023-01-13T07:43:30.738Z,8.45
2023-01-13T07:45:58.782Z,8.43
2023-01-13T07:48:26.376Z,8.25
2023-01-13T07:50:53.482Z,7.68
2023-01-13T07:53:20.913Z,7.93
2023-01-13T07:55:49.556Z,7.68
2023-01-13T07:58:16.578Z,8.00
2023-01-13T08:00:43.591Z,8.52
2023-01-13T08:03:10.625Z,8.20
2023-01-13T08:05:37.695Z,8.32
2023-01-13T08:08:04.913Z,9.40
2023-01-13T08:10:32.410Z,10.40
2023-01-13T08:13:22.289Z,9.15
2023-01-13T08:15:50.847Z,9.48
2023-01-13T08:18:20.929Z,10.40
2023-01-13T08:20:48.780Z,9.38
2023-01-13T08:23:16.255Z,9.43
2023-01-13T08:25:43.213Z,10.52
2023-01-13T08:28:11.760Z,9.32
2023-01-13T08:30:38.788Z,9.63
2023-01-13T08:33:07.973Z,9.18
2023-01-13T08:35:44.369Z,9.27
2023-01-13T08:38:11.610Z,9.15
2023-01-13T08:40:39.748Z,10.85
2023-01-13T08:43:06.880Z,10.40
2023-01-13T08:45:36.103Z,12.63
2023-01-13T08:48:03.956Z,12.93
2023-01-13T08:50:30.996Z,13.45
2023-01-13T08:52:57.995Z,13.77
2023-01-13T08:55:24.972Z,13.52
2023-01-13T08:57:53.102Z,14.43
2023-01-13T09:00:24.245Z,13.20
2023-01-13T09:02:53.023Z,11.32
2023-01-13T09:05:20.110Z,11.43
2023-01-13T09:07:47.043Z,11.50
2023-01-13T09:10:14.053Z,10.27
2023-01-13T09:13:02.301Z,9.55
2023-01-13T09:15:29.397Z,8.88
2023-01-13T09:18:01.766Z,8.65
2023-01-13T09:20:28.699Z,8.77
2023-01-13T09:22:55.623Z,8.52
2023-01-13T09:25:22.671Z,8.15
2023-01-13T09:27:49.608Z,8.38
2023-01-13T09:30:17.260Z,10.35
2023-01-13T09:32:44.308Z,9.70
2023-01-13T09:35:12.917Z,10.13
2023-01-13T09:37:41.207Z,9.30
2023-01-13T09:40:15.293Z,9.05
2023-01-13T09:43:05.640Z,9.90
2023-01-13T09:45:39.769Z,10.65
2023-01-13T09:48:13.303Z,10.73
2023-01-13T09:50:55.829Z,12.25
2023-01-13T09:53:30.761Z,11.88
2023-01-13T09:55:58.367Z,10.57
2023-01-13T09:58:25.537Z,16.27
2023-01-13T10:01:09.491Z,35.75
2023-01-13T10:03:36.740Z,12.80
2023-01-13T10:06:14.008Z,12.13
2023-01-13T10:08:42.853Z,11.43
2023-01-13T10:11:33.732Z,9.93
2023-01-13T10:14:02.530Z,10.90
2023-01-13T10:16:42.263Z,10.93
2023-01-13T10:19:18.686Z,11.20
2023-01-13T10:22:07.854Z,11.90
2023-01-13T10:24:55.399Z,12.13
2023-01-13T10:27:29.168Z,11.23
2023-01-13T10:29:56.230Z,12.63
2023-01-13T10:32:23.276Z,12.23
2023-01-13T10:34:51.648Z,12.13
2023-01-13T10:37:28.658Z,11.82
2023-01-13T10:39:57.093Z,12.45
2023-01-13T10:42:28.521Z,12.88
2023-01-13T10:44:57.401Z,13.07
2023-01-13T10:47:26.765Z,12.38
2023-01-13T10:50:22.929Z,12.00
2023-01-13T10:55:30.645Z,11.35
2023-01-13T10:58:00.033Z,12.02
2023-01-13T11:00:29.514Z,11.73
2023-01-13T11:03:17.338Z,11.88
2023-01-13T11:05:53.262Z,14.82
2023-01-13T11:08:23.987Z,11.73
2023-01-13T11:10:53.833Z,11.68
2023-01-13T11:13:28.179Z,11.05
2023-01-13T11:16:03.521Z,9.93
2023-01-13T11:21:07.187Z,10.85
2023-01-13T11:23:39.752Z,9.55
2023-01-13T11:26:13.567Z,9.25
2023-01-13T11:28:50.696Z,9.10
2023-01-13T11:31:22.800Z,8.80
2023-01-13T11:33:56.391Z,9.80
2023-01-13T11:36:26.586Z,10.52
2023-01-13T11:38:59.819Z,8.93
2023-01-13T11:41:43.824Z,9.30
2023-01-13T11:44:18.103Z,9.98
2023-01-13T11:46:47.941Z,7.63
2023-01-13T11:49:26.165Z,6.50
2023-01-13T11:51:59.444Z,6.22
2023-01-13T11:54:47.154Z,5.65
2023-01-13T11:57:54.048Z,4.90
2023-01-13T12:00:35.664Z,5.82
2023-01-13T12:03:20.328Z,5.38
2023-01-13T12:05:59.812Z,5.53
2023-01-13T12:08:47.125Z,5.88
2023-01-13T12:11:22.911Z,5.30
2023-01-13T12:14:06.757Z,5.55
2023-01-13T12:16:35.049Z,5.10
2023-01-13T12:19:28.163Z,4.85
2023-01-13T12:22:08.089Z,5.65
2023-01-13T12:24:41.663Z,5.60
2023-01-13T12:27:15.886Z,5.53
2023-01-13T12:29:44.354Z,4.40
2023-01-13T12:32:14.486Z,4.57
2023-01-13T12:34:56.328Z,5.35
2023-01-13T12:37:30.465Z,7.28
2023-01-13T12:40:23.623Z,6.68
2023-01-13T12:43:16.840Z,7.82
2023-01-13T12:45:43.921Z,8.40
2023-01-13T12:48:46.315Z,8.05
2023-01-13T12:51:24.197Z,9.50
2023-01-13T12:53:51.680Z,8.90
2023-01-13T12:56:34.868Z,9.13
2023-01-13T12:59:38.827Z,9.68
2023-01-13T13:02:27.797Z,9.57
2023-01-13T13:04:56.717Z,9.75
2023-01-13T13:07:33.888Z,7.90
2023-01-13T13:10:04.699Z,7.40
2023-01-13T13:13:16.162Z,6.15
2023-01-13T13:15:43.797Z,8.98
2023-01-13T13:18:30.394Z,9.30
2023-01-13T13:21:02.367Z,8.35
2023-01-13T13:23:40.301Z,7.22
2023-01-13T13:26:31.007Z,9.18
2023-01-13T13:29:38.101Z,8.93
2023-01-13T13:32:35.703Z,9.60
2023-01-13T13:35:51.914Z,9.50
2023-01-13T13:38:52.753Z,10.70
2023-01-13T13:41:40.612Z,12.68
2023-01-13T13:44:33.838Z,8.25
2023-01-13T13:47:03.470Z,7.22
2023-01-13T13:49:41.271Z,8.48
2023-01-13T13:52:18.253Z,31.83
2023-01-13T13:54:49.055Z,22.92
2023-01-13T13:57:18.875Z,19.38
2023-01-13T13:59:46.955Z,6.70
2023-01-13T14:02:19.717Z,7.38
2023-01-13T14:04:46.703Z,6.13
2023-01-13T14:07:20.963Z,6.78
2023-01-13T14:09:52.735Z,5.57
2023-01-13T14:12:21.924Z,5.03
2023-01-13T14:14:49.782Z,5.80
2023-01-13T14:17:23.857Z,5.13
2023-01-13T14:19:58.231Z,5.90
2023-01-13T14:22:26.671Z,7.00
2023-01-13T14:24:57.573Z,6.85
2023-01-13T14:27:27.601Z,7.45
2023-01-13T14:29:55.785Z,7.93
2023-01-13T14:32:26.576Z,6.82
2023-01-13T14:34:53.644Z,7.00
2023-01-13T14:37:31.495Z,9.60
2023-01-13T14:39:58.517Z,11.07
2023-01-13T14:42:27.630Z,12.02
2023-01-13T14:44:56.336Z,12.07
2023-01-13T14:47:27.945Z,11.13
2023-01-13T14:50:03.166Z,11.30
2023-01-13T14:52:34.612Z,10.02
2023-01-13T14:55:24.880Z,10.50
2023-01-13T14:57:52.430Z,9.90
2023-01-13T15:00:25.333Z,9.35
2023-01-13T15:03:07.668Z,8.32
2023-01-13T15:05:39.982Z,8.50
2023-01-13T15:08:31.761Z,7.70
2023-01-13T15:11:00.443Z,5.70
2023-01-13T15:13:36.195Z,5.40
2023-01-13T15:16:05.784Z,4.90
2023-01-13T15:18:34.381Z,5.50
2023-01-13T15:21:01.506Z,6.80
2023-01-13T15:23:29.818Z,8.18
2023-01-13T15:25:59.378Z,8.18
2023-01-13T15:28:27.635Z,7.90
2023-01-13T15:31:00.618Z,8.98
2023-01-13T15:33:27.796Z,9.73
2023-01-13T15:35:56.161Z,10.23
2023-01-13T15:38:24.334Z,9.00
2023-01-13T15:40:53.136Z,9.57
2023-01-13T15:43:40.424Z,10.05
2023-01-13T15:46:31.950Z,9.07
2023-01-13T15:49:02.612Z,9.25
2023-01-13T15:51:29.627Z,8.38
2023-01-13T15:53:56.627Z,8.85
2023-01-13T15:56:26.701Z,9.38
2023-01-13T15:58:54.019Z,9.02
2023-01-13T16:01:22.087Z,9.18
2023-01-13T16:03:52.168Z,9.82
2023-01-13T16:06:21.310Z,10.38
2023-01-13T16:08:48.249Z,10.30
2023-01-13T16:11:15.750Z,9.63
2023-01-13T16:13:44.102Z,10.70
2023-01-13T16:16:19.085Z,11.20
2023-01-13T16:18:46.237Z,10.73
2023-01-13T16:21:14.204Z,11.00
2023-01-13T16:23:41.614Z,9.48
2023-01-13T16:26:18.941Z,9.85
2023-01-13T16:28:47.587Z,10.45
2023-01-13T16:31:22.745Z,15.20
2023-01-13T16:33:50.094Z,11.48
2023-01-13T16:36:20.114Z,10.55
2023-01-13T16:38:48.060Z,10.05
2023-01-13T16:41:15.172Z,9.60
2023-01-13T16:43:42.308Z,9.73
2023-01-13T16:46:22.975Z,9.35
2023-01-13T16:48:50.667Z,7.93
2023-01-13T16:51:17.795Z,9.10
2023-01-13T16:53:45.437Z,9.43
2023-01-13T16:56:27.978Z,9.07
2023-01-13T16:58:56.658Z,8.23
2023-01-13T17:01:26.829Z,7.95
2023-01-13T17:03:54.936Z,8.02
2023-01-13T17:06:25.321Z,7.70
2023-01-13T17:08:53.630Z,8.05
2023-01-13T17:11:21.002Z,6.97
2023-01-13T17:13:48.025Z,7.38
2023-01-13T17:16:20.575Z,7.85
2023-01-13T17:18:49.227Z,8.07
2023-01-13T17:21:16.855Z,9.68
2023-01-13T17:23:44.113Z,8.98
2023-01-13T17:26:27.517Z,10.43
2023-01-13T17:28:54.621Z,10.75
2023-01-13T17:31:21.640Z,10.95
2023-01-13T17:33:49.972Z,11.07
2023-01-13T17:36:19.954Z,11.15
2023-01-13T17:38:46.964Z,11.73
2023-01-13T17:41:13.969Z,11.25
2023-01-13T17:43:41.027Z,11.18
2023-01-13T17:46:09.142Z,12.20
2023-01-13T17:48:36.589Z,11.05
2023-01-13T17:51:08.771Z,10.93
2023-01-13T17:53:35.761Z,10.93
2023-01-13T17:56:02.669Z,11.18
2023-01-13T17:58:32.770Z,11.43
2023-01-13T18:00:59.773Z,12.55
2023-01-13T18:03:26.799Z,15.57
2023-01-13T18:05:53.776Z,13.18
2023-01-13T18:08:23.641Z,16.00
2023-01-13T18:10:52.200Z,17.77
2023-01-13T18:13:19.391Z,18.63
2023-01-13T18:15:46.344Z,20.52
2023-01-13T18:18:13.313Z,19.75
2023-01-13T18:20:58.804Z,21.73
2023-01-13T18:23:45.923Z,25.63
2023-01-13T18:26:35.707Z,34.55
2023-01-13T18:29:03.646Z,37.60
2023-01-13T18:31:30.846Z,25.63
2023-01-13T18:33:58.038Z,19.13
2023-01-13T18:36:25.258Z,21.25
2023-01-13T18:38:53.680Z,20.38
2023-01-13T18:41:39.396Z,23.52
2023-01-13T18:46:33.457Z,17.63
2023-01-13T18:49:00.474Z,13.82
2023-01-13T18:51:27.806Z,12.63
2023-01-13T18:53:56.864Z,14.05
2023-01-13T18:56:24.335Z,14.30
2023-01-13T18:58:53.723Z,14.27
2023-01-13T19:01:26.246Z,14.70
2023-01-13T19:03:57.594Z,13.20
2023-01-13T19:06:27.760Z,13.77
2023-01-13T19:08:58.762Z,13.98
2023-01-13T19:11:26.311Z,13.95
2023-01-13T19:13:53.787Z,13.57
2023-01-13T19:16:24.764Z,12.68
2023-01-13T19:18:52.432Z,13.60
2023-01-13T19:21:20.023Z,13.07
2023-01-13T19:23:47.055Z,12.93
2023-01-13T19:26:16.830Z,13.13
2023-01-13T19:28:44.576Z,14.07
2023-01-13T19:31:17.379Z,12.98
2023-01-13T19:33:44.488Z,14.02
2023-01-13T19:36:11.847Z,14.77
2023-01-13T19:38:39.215Z,14.43
2023-01-13T19:41:28.822Z,15.30
2023-01-13T19:44:17.150Z,13.75
2023-01-13T19:46:45.441Z,13.18
2023-01-13T19:49:12.999Z,14.13
2023-01-13T19:51:40.137Z,13.82
2023-01-13T19:54:07.424Z,14.30
2023-01-13T19:56:34.810Z,14.70
2023-01-13T19:59:03.919Z,13.23
2023-01-13T20:01:35.208Z,13.98
2023-01-13T20:04:08.590Z,14.48
2023-01-13T20:06:37.864Z,13.88
2023-01-13T20:09:05.279Z,12.73
2023-01-13T20:11:33.630Z,14.52
2023-01-13T20:14:01.725Z,31.30
2023-01-13T20:16:32.921Z,28.98
2023-01-13T20:19:00.583Z,32.85
2023-01-13T20:21:32.166Z,34.85
2023-01-13T20:23:59.867Z,35.40
2023-01-13T20:26:27.628Z,30.85
2023-01-13T20:28:54.974Z,30.48
2023-01-13T20:31:22.894Z,32.08
2023-01-13T20:33:51.647Z,32.03
2023-01-13T20:36:26.438Z,33.72
2023-01-13T20:38:58.007Z,29.75
2023-01-13T20:41:44.176Z,26.35
2023-01-13T20:44:11.765Z,25.58
2023-01-13T20:46:39.200Z,25.48
2023-01-13T20:49:10.612Z,22.92
2023-01-13T20:51:38.253Z,23.00
2023-01-13T20:54:06.145Z,26.52
2023-01-13T20:56:33.342Z,28.33
2023-01-13T20:59:00.356Z,32.70
2023-01-13T21:01:32.063Z,34.75
2023-01-13T21:04:00.262Z,34.20
2023-01-13T21:06:29.742Z,34.97
2023-01-13T21:08:58.643Z,35.08
2023-01-13T21:11:45.883Z,35.25
2023-01-13T21:14:34.748Z,37.08
2023-01-13T21:17:01.996Z,36.00
2023-01-13T21:19:29.451Z,36.90
2023-01-13T21:21:58.384Z,34.00
2023-01-13T21:24:25.854Z,34.42
2023-01-13T21:27:02.001Z,36.55
2023-01-13T21:29:29.262Z,33.33
2023-01-13T21:31:56.674Z,28.35
2023-01-13T21:34:23.611Z,28.73
2023-01-13T21:36:50.591Z,28.33
2023-01-13T21:39:19.057Z,26.38
2023-01-13T21:42:04.817Z,24.58
2023-01-13T21:47:36.973Z,23.33
2023-01-13T21:50:06.499Z,22.83
2023-01-13T21:52:33.715Z,23.23
2023-01-13T21:55:17.205Z,24.65
2023-01-13T21:57:44.889Z,22.17
2023-01-13T22:00:12.886Z,19.63
2023-01-13T22:02:39.898Z,19.10
2023-01-13T22:05:09.426Z,19.67
2023-01-13T22:07:37.853Z,20.25
2023-01-13T22:10:11.316Z,18.85
2023-01-13T22:12:38.284Z,20.00
2023-01-13T22:15:06.134Z,21.30
2023-01-13T22:17:33.207Z,21.77
2023-01-13T22:20:01.363Z,24.50
2023-01-13T22:22:29.167Z,25.77
2023-01-13T22:24:56.191Z,27.02
2023-01-13T22:27:26.395Z,28.05
2023-01-13T22:29:53.563Z,25.23
2023-01-13T22:32:21.455Z,24.73
2023-01-13T22:34:48.547Z,25.25
2023-01-13T22:37:15.703Z,27.25
2023-01-13T22:39:45.703Z,27.40
2023-01-13T22:42:12.739Z,27.27
2023-01-13T22:44:41.043Z,27.08
2023-01-13T22:47:08.613Z,27.52
2023-01-13T22:49:35.643Z,25.75
2023-01-13T22:52:02.636Z,25.13
2023-01-13T22:54:30.750Z,25.40
2023-01-13T22:56:57.719Z,24.45
2023-01-13T22:59:25.422Z,23.88
2023-01-13T23:01:54.062Z,24.92
2023-01-13T23:04:21.100Z,25.20
2023-01-13T23:06:48.036Z,24.55
2023-01-13T23:09:18.132Z,22.65
2023-01-13T23:11:47.707Z,23.20
2023-01-13T23:14:14.832Z,23.88
2023-01-13T23:16:42.880Z,25.55
2023-01-13T23:19:13.943Z,23.55
2023-01-13T23:21:41.194Z,24.58
2023-01-13T23:24:09.407Z,24.65
2023-01-13T23:26:36.970Z,21.92
2023-01-13T23:29:07.099Z,21.65
2023-01-13T23:31:34.382Z,21.15
2023-01-13T23:34:01.582Z,22.25
2023-01-13T23:36:30.654Z,21.27
2023-01-13T23:38:59.366Z,19.27
2023-01-13T23:41:28.482Z,21.65
2023-01-13T23:43:57.562Z,20.42
2023-01-13T23:46:25.621Z,32.92
2023-01-13T23:48:52.700Z,32.42
2023-01-13T23:51:22.543Z,32.35
2023-01-13T23:53:51.251Z,37.22
2023-01-13T23:56:20.554Z,42.17
2023-01-13T23:58:48.335Z,39.10
